Flight Track Log - Related Links

Times and Time Zones

All times are in EDT time to prevent confusion due to time zone crossing. See the N53NW flight status page for this flight to view local times or setup timezone preferences in your user account.

Time Position Orientation Groundspeed Altitude Reporting Facility
EDT Latitude Longitude Course Direction KTS MPH feet Rate Location/Type
Mon 07:29:54 PM 36.0586 -115.1767 200° South 195 224 3,200  Level Los Angeles Center
Mon 07:30:11 PM 36.0464 -115.1822 200° South 202 232 3,700 2,506 Climbing Los Angeles Center
Mon 07:31:13 PM 35.9983 -115.2394 224° Southwest 260 299 6,500 2,667 Climbing Los Angeles Center
Mon 07:31:14 PM 35.9972 -115.2419 241° Southwest 243 280 6,500 2,226 Level Los Angeles Center
Mon 07:32:15 PM 35.9475 -115.2889 217° Southwest 264 304 8,800 1,426 Climbing Los Angeles Center
Mon 07:33:16 PM 35.8714 -115.2594 163° South 272 313 9,400 581 Climbing Los Angeles Center
Mon 07:33:17 PM 35.8722 -115.2575 62° Northeast 279 321 9,400 1,333 Level Los Angeles Center
Mon 07:34:19 PM 35.8456 -115.1769 112° Southeast 271 312 10,800 1,790 Climbing Los Angeles Center
Mon 07:35:21 PM 35.8242 -115.0831 106° East 279 321 13,100 2,565 Climbing Los Angeles Center
Mon 07:36:23 PM 35.8331 -114.9608 85° East 296 341 16,100 2,710 Climbing Los Angeles Center
Mon 07:37:25 PM 35.8411 -114.8636 84° East 292 336 18,700 2,274 Climbing Los Angeles Center
Mon 07:38:27 PM 35.8500 -114.7672 83° East 288 331 20,800 1,839 Climbing Los Angeles Center
Mon 07:39:29 PM 35.8583 -114.6656 84° East 291 335 22,500 1,597 Climbing Los Angeles Center
Mon 07:40:31 PM 35.8667 -114.5556 85° East 305 351 24,100 1,597 Climbing Los Angeles Center
Mon 07:41:33 PM 35.8767 -114.4406 84° East 321 369 25,800 1,742 Climbing Los Angeles Center
Mon 07:42:35 PM 35.8883 -114.2989 84° East 336 387 27,700 1,694 Climbing Los Angeles Center
Mon 07:43:37 PM 35.8989 -114.1772 84° East 348 400 29,300 1,548 Climbing Los Angeles Center
Mon 07:44:39 PM 35.9097 -114.0556 84° East 357 411 30,900 1,548 Climbing Los Angeles Center
Mon 07:45:41 PM 35.9192 -113.9308 85° East 363 418 32,500 1,548 Climbing Los Angeles Center
Mon 07:46:43 PM 35.9194 -113.8086 90° East 358 412 34,100 1,403 Climbing Los Angeles Center
Mon 07:47:45 PM 35.9186 -113.6864 90° East 357 411 35,400 1,161 Climbing Los Angeles Center
Mon 07:48:47 PM 35.9175 -113.5428 91° East 361 415 36,500 1,008 Climbing Los Angeles Center
Mon 07:49:50 PM 35.9175 -113.4150 90° East 369 425 37,500 960 Climbing Los Angeles Center
Mon 07:50:52 PM 35.9161 -113.2883 91° East 371 427 38,500 968 Climbing Los Angeles Center
Mon 07:51:54 PM 35.9156 -113.1625 90° East 369 425 39,500 829 Climbing Los Angeles Center
Mon 07:52:55 PM 35.9147 -113.0617 91° East 368 423 40,200 726 Climbing Los Angeles Center
Mon 07:53:58 PM 35.9117 -112.8847 91° East 369 425 41,000 384 Climbing Los Angeles Center
Mon 07:55:00 PM 35.9097 -112.7514 91° East 381 438 41,000  Level Los Angeles Center
Mon 07:56:02 PM 35.9081 -112.6139 91° East 395 455 41,000  Level Los Angeles Center
Mon 07:57:04 PM 35.9058 -112.4758 91° East 402 463 41,000  Level Los Angeles Center
Mon 07:58:06 PM 35.9028 -112.3397 92° East 399 459 41,000  Level Los Angeles Center
Mon 07:59:08 PM 35.9003 -112.2028 91° East 400 460 41,000  Level Los Angeles Center
Mon 08:00:11 PM 35.8972 -112.0375 91° East 402 463 41,000  Level Los Angeles Center
Mon 08:01:13 PM 35.8925 -111.8983 92° East 406 467 41,000  Level Los Angeles Center
Mon 08:02:15 PM 35.8897 -111.7581 91° East 411 473 41,000  Level Los Angeles Center
Mon 08:03:17 PM 35.8936 -111.6192 88° East 409 471 41,000  Level Los Angeles Center
Mon 08:04:19 PM 35.8964 -111.4839 89° East 402 463 41,000  Level Los Angeles Center
Mon 08:05:31 PM 35.9011 -111.3158 88° East 408 470 41,000  Level Denver Center
Mon 08:06:33 PM 35.9025 -111.1494 89° East 407 468 41,000  Level Denver Center
Mon 08:07:35 PM 35.9044 -111.0103 89° East 407 468 41,000  Level Denver Center
Mon 08:09:39 PM 35.9081 -110.7297 89° East 411 473 41,000  Level Denver Center
Mon 08:10:42 PM 35.9097 -110.5897 89° East 410 472 41,000  Level Denver Center
Mon 08:11:44 PM 35.9097 -110.4225 90° East 408 470 41,000  Level Denver Center
Mon 08:12:46 PM 35.9119 -110.2817 89° East 411 473 41,000  Level Denver Center
Mon 08:13:48 PM 35.9133 -110.1392 89° East 415 478 41,000  Level Denver Center
Mon 08:14:50 PM 35.9142 -109.9906 90° East 418 481 41,000  Level Denver Center
Mon 08:15:52 PM 35.9150 -109.8517 90° East 422 486 41,000  Level Denver Center
Mon 08:16:54 PM 35.9147 -109.6886 90° East 424 488 41,000  Level Denver Center
Mon 08:17:56 PM 35.9147 -109.5503 90° East 423 487 41,000  Level Denver Center
Mon 08:18:58 PM 35.9153 -109.3897 90° East 421 484 41,000  Level Denver Center
Mon 08:20:00 PM 35.9144 -109.2531 90° East 418 481 41,000  Level Denver Center
Mon 08:21:02 PM 35.9142 -109.0939 90° East 418 481 41,000  Level Denver Center
Mon 08:22:04 PM 35.9122 -108.9581 91° East 418 481 41,000  Level Denver Center
Mon 08:23:06 PM 35.9119 -108.7983 90° East 423 487 41,000  Level Denver Center
Mon 08:24:08 PM 35.9128 -108.6394 90° East 421 484 41,000  Level Denver Center
Mon 08:25:10 PM 35.9117 -108.5039 91° East 417 480 41,000  Level Denver Center
Mon 08:26:12 PM 35.9108 -108.3467 90° East 413 475 41,000  Level Denver Center
Mon 08:27:14 PM 35.9092 -108.2114 91° East 413 475 41,000  Level Denver Center
Mon 08:28:16 PM 35.9075 -108.0758 91° East 413 475 41,000  Level Denver Center
Mon 08:29:18 PM 35.9058 -107.9181 91° East 414 476 41,000  Level Denver Center
Mon 08:30:34 PM 35.9039 -107.7369 91° East 415 478 41,000  Level Albuquerque Center
Mon 08:31:36 PM 35.9019 -107.6008 91° East 416 479 41,000  Level Albuquerque Center
Mon 08:32:37 PM 35.9000 -107.4414 91° East 416 479 41,000  Level Albuquerque Center
Mon 08:33:39 PM 35.8975 -107.3050 91° East 416 479 41,000  Level Albuquerque Center
Mon 08:34:40 PM 35.8944 -107.1442 91° East 419 482 41,000  Level Albuquerque Center
Mon 08:35:42 PM 35.8906 -107.0072 92° East 419 482 41,000  Level Albuquerque Center
Mon 08:36:44 PM 35.8894 -106.8700 91° East 418 481 41,000  Level Albuquerque Center
Mon 08:37:45 PM 35.8853 -106.7114 92° East 416 479 41,000  Level Albuquerque Center
Mon 08:38:47 PM 35.8814 -106.5742 92° East 418 481 41,000  Level Albuquerque Center
Mon 08:39:48 PM 35.8783 -106.4161 91° East 425 489 41,000  Level Albuquerque Center
Mon 08:40:49 PM 35.8739 -106.2708 92° East 426 490 41,000  Level Albuquerque Center
Mon 08:41:51 PM 35.8753 -106.1214 89° East 415 478 41,000  Level Albuquerque Center
Mon 08:42:52 PM 35.8700 -105.9756 93° East 420 483 41,000  Level Albuquerque Center
Mon 08:43:54 PM 35.8650 -105.8267 92° East 430 495 41,000  Level Albuquerque Center
Mon 08:44:55 PM 35.8606 -105.6789 92° East 432 497 41,000  Level Albuquerque Center
Mon 08:45:56 PM 35.8553 -105.5353 93° East 432 497 41,000  Level Albuquerque Center
Mon 08:46:58 PM 35.8500 -105.3872 92° East 431 496 41,000  Level Albuquerque Center
Mon 08:47:59 PM 35.8456 -105.2381 92° East 431 496 41,000  Level Albuquerque Center
Mon 08:49:01 PM 35.8397 -105.0619 92° East 434 499 41,000  Level Albuquerque Center
Mon 08:50:02 PM 35.8342 -104.9131 93° East 432 497 41,000  Level Albuquerque Center
Mon 08:51:03 PM 35.8275 -104.7650 93° East 429 494 41,000  Level Albuquerque Center
Mon 08:52:05 PM 35.8214 -104.6158 93° East 430 495 41,000  Level Albuquerque Center
Mon 08:53:06 PM 35.8158 -104.4686 93° East 427 491 41,000  Level Albuquerque Center
Mon 08:54:07 PM 35.8100 -104.3197 93° East 427 491 41,000  Level Albuquerque Center
Mon 08:55:09 PM 35.8033 -104.1703 93° East 430 495 41,000  Level Albuquerque Center
Mon 08:56:10 PM 35.7969 -104.0219 93° East 429 494 41,000  Level Albuquerque Center
Mon 08:57:12 PM 35.7894 -103.8731 94° East 430 495 41,000  Level Albuquerque Center
Mon 08:58:13 PM 35.7828 -103.7233 93° East 432 497 41,000  Level Albuquerque Center
Mon 08:59:14 PM 35.7747 -103.5750 94° East 430 495 41,000  Level Albuquerque Center
Mon 09:00:16 PM 35.7681 -103.4272 93° East 430 495 41,000  Level Albuquerque Center
Mon 09:01:17 PM 35.7614 -103.2786 93° East 430 495 41,000  Level Albuquerque Center
Mon 09:02:19 PM 35.7542 -103.1311 93° East 428 493 41,000  Level Albuquerque Center
Mon 09:03:20 PM 35.7453 -102.9817 94° East 432 497 41,000  Level Albuquerque Center
Mon 09:04:21 PM 35.7375 -102.8339 94° East 431 496 41,000  Level Albuquerque Center
Mon 09:05:23 PM 35.7297 -102.6867 94° East 432 497 41,000  Level Albuquerque Center
Mon 09:06:24 PM 35.7217 -102.5392 94° East 433 498 41,000  Level Albuquerque Center
Mon 09:07:26 PM 35.7100 -102.3636 95° East 430 495 41,000  Level Albuquerque Center
Mon 09:08:27 PM 35.7031 -102.2158 93° East 432 497 41,000  Level Albuquerque Center
Mon 09:09:29 PM 35.6933 -102.0692 95° East 430 495 41,000  Level Albuquerque Center
Mon 09:10:30 PM 35.6853 -101.9214 94° East 431 496 41,000  Level Albuquerque Center
Mon 09:11:32 PM 35.6747 -101.7736 95° East 431 496 41,000  Level Albuquerque Center
Mon 09:12:33 PM 35.6658 -101.6264 94° East 430 495 41,000  Level Albuquerque Center
Mon 09:13:35 PM 35.6567 -101.4775 94° East 432 497 41,000  Level Albuquerque Center
Mon 09:14:36 PM 35.6464 -101.3294 95° East 433 498 41,000  Level Albuquerque Center
Mon 09:15:37 PM 35.6364 -101.1825 95° East 431 496 41,000  Level Albuquerque Center
Mon 09:16:39 PM 35.6272 -101.0336 94° East 434 499 41,000  Level Albuquerque Center
Mon 09:17:40 PM 35.6142 -100.8569 95° East 433 498 41,000  Level Albuquerque Center
Mon 09:18:42 PM 35.6042 -100.7100 95° East 432 497 41,000  Level Albuquerque Center
Mon 09:19:43 PM 35.5939 -100.5744 95° East 431 496 41,000  Level Albuquerque Center
Mon 09:20:45 PM 35.5825 -100.4275 95° East 432 497 41,000  Level Albuquerque Center
Mon 09:21:46 PM 35.5711 -100.2808 95° East 432 497 41,000  Level Albuquerque Center
Mon 09:22:48 PM 35.5592 -100.1342 96° East 432 497 41,000  Level Albuquerque Center
Mon 09:23:49 PM 35.5458 -99.9572 95° East 433 498 41,000  Level Albuquerque Center
Mon 09:24:51 PM 35.5336 -99.8106 96° East 433 498 41,000  Level Albuquerque Center
Mon 09:25:52 PM 35.5228 -99.6628 95° East 435 501 41,000  Level Albuquerque Center
Mon 09:26:36 PM 35.5128 -99.5658 97° East 426 490 41,000  Level Fort Worth Center
Mon 09:27:36 PM 35.5006 -99.4203 96° East 426 490 41,000  Level Fort Worth Center
Mon 09:28:36 PM 35.4883 -99.2719 96° East 426 490 41,000  Level Fort Worth Center
Mon 09:29:36 PM 35.4778 -99.1267 95° East 426 490 41,000  Level Fort Worth Center
Mon 09:30:36 PM 35.4611 -98.9606 97° East 435 501 41,000  Level Fort Worth Center
Mon 09:31:36 PM 35.4506 -98.8125 95° East 435 501 41,000  Level Fort Worth Center
Mon 09:32:36 PM 35.4375 -98.6672 96° East 435 501 41,000  Level Fort Worth Center
Mon 09:33:36 PM 35.4242 -98.5217 96° East 435 501 41,000  Level Fort Worth Center
Mon 09:34:36 PM 35.4128 -98.3814 96° East 425 489 41,000  Level Fort Worth Center
Mon 09:35:35 PM 35.3972 -98.2361 97° East 425 489 41,000  Level Fort Worth Center
Mon 09:36:35 PM 35.3836 -98.0883 96° East 425 489 41,000  Level Fort Worth Center
Mon 09:37:36 PM 35.3697 -97.9431 97° East 425 489 41,000  Level Fort Worth Center
Mon 09:38:35 PM 35.3536 -97.7953 98° East 425 489 41,000  Level Fort Worth Center
Mon 09:39:36 PM 35.3392 -97.6503 97° East 425 489 41,000  Level Fort Worth Center
Mon 09:40:35 PM 35.3228 -97.5025 98° East 425 489 41,000  Level Fort Worth Center
Mon 09:41:36 PM 35.3144 -97.3653 94° East 446 513 41,000  Level Fort Worth Center
Mon 09:42:35 PM 35.3017 -97.2153 96° East 446 513 41,000  Level Fort Worth Center
Mon 09:43:36 PM 35.2806 -97.0678 100° East 446 513 41,000  Level Fort Worth Center
Mon 09:44:36 PM 35.2656 -96.9228 97° East 446 513 41,000  Level Fort Worth Center
Mon 09:45:36 PM 35.2503 -96.7756 97° East 440 506 41,000  Level Fort Worth Center
Mon 09:46:36 PM 35.2347 -96.6281 97° East 440 506 41,000  Level Fort Worth Center
Mon 09:47:35 PM 35.2192 -96.4836 97° East 440 506 41,000  Level Fort Worth Center
Mon 09:48:35 PM 35.2036 -96.3339 97° East 440 506 41,000  Level Fort Worth Center
Mon 09:49:36 PM 35.1856 -96.1867 98° East 440 506 41,000  Level Fort Worth Center
Mon 09:50:36 PM 35.1694 -96.0394 98° East 445 512 41,000  Level Fort Worth Center
Mon 09:51:35 PM 35.1508 -95.8900 99° East 445 512 41,000  Level Fort Worth Center
Mon 09:52:36 PM 35.1386 -95.7431 96° East 445 512 41,000 -595 Level Fort Worth Center
Mon 09:53:36 PM 35.1219 -95.5961 98° East 445 512 39,800 -1,173 Descending Fort Worth Center
Mon 09:55:35 PM 35.0869 -95.3008 98° East 432 497 37,500 -1,167 Descending Memphis Center
Mon 09:56:36 PM 35.0703 -95.1503 98° East 441 507 36,300 -1,180 Descending Memphis Center
Mon 09:57:37 PM 35.0517 -94.9989 98° East 449 517 35,100 -634 Descending Memphis Center
Mon 09:58:39 PM 35.0333 -94.8475 98° East 451 519 35,000 -629 Descending Memphis Center
Mon 09:59:41 PM 35.0150 -94.7006 99° East 443 510 33,800 -1,317 Descending Memphis Center
Mon 10:00:42 PM 34.9969 -94.5461 98° East 446 513 32,300 -1,426 Descending Memphis Center
Mon 10:01:43 PM 34.9781 -94.3947 99° East 452 520 30,900 -1,574 Descending Memphis Center
Mon 10:02:44 PM 34.9550 -94.2117 99° East 456 525 29,100 -1,672 Descending Memphis Center
Mon 10:03:45 PM 34.9350 -94.0600 99° East 456 525 27,500 -1,869 Descending Memphis Center
Mon 10:04:46 PM 34.9161 -93.9172 99° East 440 506 25,300 -2,508 Descending Memphis Center
Mon 10:05:47 PM 34.8992 -93.7850 99° East 410 472 22,400 -2,311 Descending Memphis Center
Mon 10:06:48 PM 34.8822 -93.6561 99° East 395 455 20,600 -1,328 Descending Memphis Center
Mon 10:07:49 PM 34.8664 -93.5364 99° East 375 432 19,700 -934 Descending Memphis Center
Mon 10:08:50 PM 34.8497 -93.4228 100° East 355 409 18,700 -1,525 Descending Memphis Center
Mon 10:09:51 PM 34.8364 -93.3150 99° East 335 386 16,600 -2,262 Descending Memphis Center
Mon 10:10:52 PM 34.8217 -93.2081 99° East 327 376 14,100 -2,361 Descending Memphis Center
Mon 10:11:53 PM 34.8044 -93.0833 100° East 318 366 11,800 -2,123 Descending Memphis Center
Mon 10:11:57 PM 34.8044 -93.0856 270° West 309 356 11,800 -1,770 Level Memphis Center
Mon 10:12:54 PM 34.7908 -92.9814 99° East 312 359 10,000 -1,113 Descending Memphis Center
Mon 10:13:34 PM 34.7792 -92.9122 102° East 307 353 10,000  Level Memphis Center
Mon 10:13:55 PM 34.7767 -92.8819 96° East 306 352 10,000  Level Memphis Center
Mon 10:14:29 PM 34.7697 -92.8267 99° East 294 338 10,000 -295 Level Memphis Center
Mon 10:14:56 PM 34.7639 -92.7853 100° East 296 341 9,700 -1,600 Descending Memphis Center
Mon 10:15:29 PM 34.7556 -92.7339 101° East 287 330 8,400 -1,770 Descending Memphis Center
Mon 10:15:57 PM 34.7508 -92.6911 98° East 289 333 7,900 -1,377 Descending Memphis Center
Mon 10:16:30 PM 34.7414 -92.6383 102° East 273 314 7,000 -1,377 Descending Memphis Center
Mon 10:16:58 PM 34.7378 -92.6014 97° East 277 319 6,500 -1,333 Descending Memphis Center
Mon 10:17:24 PM 34.7322 -92.5631 100° East 253 291 5,800 -1,279 Descending Memphis Center
Mon 10:17:59 PM 34.7264 -92.5186 99° East 259 298 5,200 -716 Descending Memphis Center
Mon 10:18:31 PM 34.7181 -92.4703 102° East 243 280 5,000 -197 Descending Memphis Center
Mon 10:19:00 PM 34.7153 -92.4389 96° East 248 285 5,000  Level Memphis Center
Mon 10:19:32 PM 34.7064 -92.3900 102° East 233 268 5,000  Level Memphis Center
Mon 10:20:01 PM 34.6992 -92.3639 109° East 243 280 5,000  Level Memphis Center
Mon 10:20:26 PM 34.6631 -92.3547 168° South 226 260 5,000  Level Memphis Center
Mon 10:21:02 PM 34.6372 -92.3442 161° South 232 267 5,000 -90 Level Memphis Center
Mon 10:21:33 PM 34.5953 -92.3336 168° South 228 262 4,900 -590 Descending Memphis Center
Mon 10:22:03 PM 34.5756 -92.3261 163° South 229 264 4,400 -982 Descending Memphis Center
Mon 10:22:28 PM 34.5422 -92.3167 167° South 220 253 4,000 -393 Descending Memphis Center
Mon 10:23:04 PM 34.5125 -92.3033 160° South 206 237 4,000 -222 Level Memphis Center
Mon 10:23:22 PM 34.4956 -92.2994 169° South 179 206 3,800 -689 Descending Memphis Center
Mon 10:24:05 PM 34.4625 -92.2867 162° South 190 219 3,300 -545 Descending Memphis Center
Mon 10:24:17 PM 34.4550 -92.2792 140° Southeast 183 211 3,300  Level Memphis Center
Mon 10:25:17 PM 34.4606 -92.2158 84° East 201 231 3,300  Level Memphis Center
Mon 10:26:18 PM 34.5111 -92.2253 351° North 186 214 3,300 -541 Level Memphis Center
Mon 10:27:08 PM 34.5519 -92.2414 342° North 190 219 2,300 -1,279 Descending Memphis Center
Mon 10:27:19 PM 34.5642 -92.2447 347° North 187 215 2,000 -300 Descending Memphis Center
Mon 10:28:08 PM 34.6006 -92.2433 North 184 212 2,000  Level Memphis Center
Mon 10:28:19 PM 34.6122 -92.2442 357° North 175 201 2,000 -197 Level Memphis Center
Mon 10:29:09 PM 34.6467 -92.2386 North 174 200 1,800 -393 Descending Memphis Center
Mon 10:29:20 PM 34.6561 -92.2414 346° North 153 176 1,600 -590 Descending Memphis Center
Mon 10:30:10 PM 34.6831 -92.2383 North 156 180 1,200 -455 Descending Memphis Center
Mon 10:30:26 PM 34.6917 -92.2417 342° North 113 130 1,100 -295 Descending Memphis Center
Mon 10:31:11 PM 34.7214 -92.2364 North 143 165 900 -267 Descending Memphis Center

Login

Don't have an account? Register now (free) for customized features, flight alerts, and more!